Terminal Aerodrome Forecast
Issued by NWS

Home | Current Version | Previous Version | Text Only | Print | Product List | Glossary Off
Versions: 1 2 3 4 5 6 7 8 9 10 11 12 13 14 15 16 17 18

000
FTUS43 KMPX 252320
TAFAXN
TAF
KAXN 252320Z 2600/2624 15008KT P6SM VCSH SCT030 BKN100
     FM260200 09007KT 6SM -SHRA VCTS SCT040CB OVC080
     FM260600 31005KT P6SM OVC050
     FM261600 35007KT P6SM SCT200=

USA.gov is the U.S. government's official web portal to all federal, state and local government web resources and services.